createdAt,value
2022-10-15T00:00:49.867Z,20.11
2022-10-15T00:01:52.034Z,23.30
2022-10-15T00:02:54.271Z,22.40
2022-10-15T00:03:56.182Z,24.56
2022-10-15T00:04:58.132Z,24.80
2022-10-15T00:06:06.539Z,22.00
2022-10-15T00:07:08.477Z,22.80
2022-10-15T00:08:11.427Z,18.33
2022-10-15T00:09:13.375Z,27.64
2022-10-15T00:10:16.155Z,20.89
2022-10-15T00:11:21.605Z,21.80
2022-10-15T00:12:24.613Z,27.00
2022-10-15T00:13:26.348Z,19.82
2022-10-15T00:14:28.704Z,20.89
2022-10-15T00:15:30.912Z,21.70
2022-10-15T00:16:33.242Z,15.00
2022-10-15T00:17:36.015Z,22.10
2022-10-15T00:18:38.235Z,22.30
2022-10-15T00:19:40.025Z,20.80
2022-10-15T00:20:42.013Z,22.00
2022-10-15T00:21:43.770Z,22.22
2022-10-15T00:22:45.480Z,19.33
2022-10-15T00:23:48.016Z,21.11
2022-10-15T00:24:49.714Z,18.80
2022-10-15T00:27:13.642Z,18.30
2022-10-15T00:28:17.069Z,18.40
2022-10-15T00:29:19.222Z,20.73
2022-10-15T00:30:21.154Z,23.20
2022-10-15T00:31:25.206Z,17.11
2022-10-15T00:32:27.098Z,22.10
2022-10-15T00:33:28.994Z,21.22
2022-10-15T00:34:30.869Z,28.89
2022-10-15T00:35:33.938Z,23.09
2022-10-15T00:36:37.090Z,23.80
2022-10-15T00:37:38.946Z,25.30
2022-10-15T00:38:40.841Z,22.89
2022-10-15T00:39:42.973Z,21.56
2022-10-15T00:40:45.288Z,23.10
2022-10-15T00:41:48.349Z,20.56
2022-10-15T00:42:50.682Z,22.00
2022-10-15T00:43:58.155Z,22.22
2022-10-15T00:45:00.738Z,19.00
2022-10-15T00:46:03.824Z,21.10
2022-10-15T00:47:27.522Z,19.50
2022-10-15T00:48:32.121Z,18.00
2022-10-15T00:49:42.733Z,19.90
2022-10-15T00:50:46.127Z,23.50
2022-10-15T00:53:08.169Z,16.30
2022-10-15T00:54:12.127Z,24.60
2022-10-15T00:55:24.682Z,28.40
2022-10-15T00:56:29.168Z,23.70
2022-10-15T00:57:32.989Z,20.80
2022-10-15T00:58:36.179Z,27.50
2022-10-15T00:59:43.896Z,25.90
2022-10-15T01:00:45.991Z,28.20
2022-10-15T01:01:48.475Z,30.90
2022-10-15T01:02:50.179Z,24.50
2022-10-15T01:03:54.747Z,18.44
2022-10-15T01:04:56.788Z,18.90
2022-10-15T01:05:58.958Z,22.90
2022-10-15T01:07:00.999Z,22.40
2022-10-15T01:08:02.877Z,32.60
2022-10-15T01:09:06.151Z,33.33
2022-10-15T01:10:10.843Z,34.20
2022-10-15T01:11:26.381Z,29.30
2022-10-15T01:12:54.418Z,34.00
2022-10-15T01:14:21.284Z,36.30
2022-10-15T01:15:44.898Z,26.20
2022-10-15T01:17:03.088Z,35.20
2022-10-15T01:18:11.941Z,22.60
2022-10-15T01:19:33.970Z,32.10
2022-10-15T01:21:04.264Z,32.50
2022-10-15T01:22:10.939Z,32.60
2022-10-15T01:23:32.957Z,34.10
2022-10-15T01:24:42.490Z,33.20
2022-10-15T01:26:17.160Z,32.10
2022-10-15T01:27:34.188Z,32.20
2022-10-15T01:29:04.808Z,32.70
2022-10-15T01:30:20.613Z,34.30
2022-10-15T01:31:30.780Z,30.60
2022-10-15T01:32:36.288Z,32.40
2022-10-15T01:33:45.233Z,24.50
2022-10-15T01:34:51.559Z,32.00
2022-10-15T01:36:14.254Z,31.50
2022-10-15T01:37:23.245Z,29.70
2022-10-15T01:38:51.394Z,31.40
2022-10-15T01:40:09.044Z,30.50
2022-10-15T01:41:27.933Z,33.00
2022-10-15T01:42:36.492Z,34.50
2022-10-15T01:43:57.134Z,31.70
2022-10-15T01:45:10.719Z,27.80
2022-10-15T01:46:30.008Z,32.10
2022-10-15T01:47:51.792Z,35.70
2022-10-15T01:48:56.896Z,38.90
2022-10-15T01:50:01.971Z,34.80
2022-10-15T01:51:07.085Z,34.10
2022-10-15T01:53:34.916Z,15.90
2022-10-15T01:54:39.088Z,40.20
2022-10-15T01:55:44.506Z,35.80
2022-10-15T01:56:49.377Z,24.30
2022-10-15T01:57:56.605Z,26.50
2022-10-15T01:59:02.258Z,27.30
2022-10-15T02:00:05.875Z,22.60
2022-10-15T02:01:10.099Z,21.70
2022-10-15T02:02:13.433Z,21.60
2022-10-15T02:03:15.632Z,23.20
2022-10-15T02:04:25.959Z,21.90
2022-10-15T02:05:31.691Z,23.50
2022-10-15T02:06:37.528Z,23.00
2022-10-15T02:07:49.187Z,22.60
2022-10-15T02:08:57.436Z,21.70
2022-10-15T02:10:05.672Z,23.40
2022-10-15T02:11:14.086Z,24.10
2022-10-15T02:12:32.160Z,21.90
2022-10-15T02:13:51.308Z,22.40
2022-10-15T02:14:59.826Z,19.90
2022-10-15T02:16:23.102Z,19.40
2022-10-15T02:17:42.147Z,23.20
2022-10-15T02:20:21.893Z,19.50
2022-10-15T02:21:30.666Z,18.50
2022-10-15T02:22:37.259Z,21.80
2022-10-15T02:23:49.221Z,22.10
2022-10-15T02:25:03.774Z,19.50
2022-10-15T02:26:08.896Z,18.60
2022-10-15T02:27:14.375Z,21.80
2022-10-15T02:28:18.372Z,23.50
2022-10-15T02:29:23.455Z,18.80
2022-10-15T02:30:28.365Z,17.70
2022-10-15T02:31:33.077Z,22.70
2022-10-15T02:32:38.120Z,16.40
2022-10-15T02:33:41.258Z,17.20
2022-10-15T02:34:45.536Z,18.10
2022-10-15T02:35:50.646Z,8.50
2022-10-15T02:36:54.037Z,20.40
2022-10-15T02:37:59.584Z,20.91
2022-10-15T02:39:04.484Z,18.60
2022-10-15T02:40:08.615Z,14.40
2022-10-15T02:41:13.325Z,18.60
2022-10-15T02:42:18.062Z,11.40
2022-10-15T02:43:21.512Z,17.70
2022-10-15T02:44:25.386Z,16.20
2022-10-15T02:45:27.346Z,19.80
2022-10-15T02:46:31.062Z,19.50
2022-10-15T02:47:33.519Z,20.20
2022-10-15T02:48:37.049Z,20.20
2022-10-15T02:49:38.820Z,17.56
2022-10-15T02:50:40.976Z,25.00
2022-10-15T02:51:42.754Z,23.00
2022-10-15T02:52:44.480Z,21.11
2022-10-15T02:53:47.299Z,14.20
2022-10-15T02:54:48.976Z,22.30
2022-10-15T02:55:52.057Z,19.45
2022-10-15T02:56:54.133Z,19.55
2022-10-15T02:57:56.820Z,21.00
2022-10-15T02:58:58.542Z,23.30
2022-10-15T03:00:00.299Z,20.11
2022-10-15T03:01:03.887Z,20.50
2022-10-15T03:02:05.894Z,21.70
2022-10-15T03:03:08.296Z,22.90
2022-10-15T03:04:10.418Z,23.90
2022-10-15T03:05:13.369Z,26.78
2022-10-15T03:06:15.531Z,25.90
2022-10-15T03:07:17.529Z,21.10
2022-10-15T03:08:19.623Z,26.22
2022-10-15T03:09:21.687Z,4.22
2022-10-15T03:10:25.005Z,29.30
2022-10-15T03:11:27.111Z,27.40
2022-10-15T03:12:28.848Z,29.33
2022-10-15T03:13:32.657Z,23.78
2022-10-15T03:14:34.729Z,26.50
2022-10-15T03:15:38.036Z,28.89
2022-10-15T03:16:41.174Z,29.40
2022-10-15T03:17:45.378Z,25.70
2022-10-15T03:18:49.493Z,31.60
2022-10-15T03:19:52.784Z,26.00
2022-10-15T03:20:55.984Z,22.10
2022-10-15T03:21:58.970Z,20.60
2022-10-15T03:23:02.842Z,27.10
2022-10-15T03:24:06.363Z,25.73
2022-10-15T03:25:08.529Z,26.00
2022-10-15T03:26:13.098Z,22.18
2022-10-15T03:27:15.201Z,27.00
2022-10-15T03:28:17.789Z,23.20
2022-10-15T03:29:19.678Z,23.00
2022-10-15T03:30:23.442Z,25.10
2022-10-15T03:31:25.274Z,18.56
2022-10-15T03:32:32.009Z,21.60
2022-10-15T03:33:33.613Z,28.00
2022-10-15T03:34:36.460Z,26.60
2022-10-15T03:35:39.645Z,26.09
2022-10-15T03:36:41.990Z,20.20
2022-10-15T03:37:44.997Z,23.45
2022-10-15T03:38:46.748Z,22.33
2022-10-15T03:39:48.952Z,15.20
2022-10-15T03:40:52.097Z,23.70
2022-10-15T03:42:01.639Z,20.30
2022-10-15T03:43:05.529Z,22.40
2022-10-15T03:44:10.535Z,26.50
2022-10-15T03:45:14.411Z,20.90
2022-10-15T03:46:16.901Z,16.20
2022-10-15T03:47:20.684Z,20.20
2022-10-15T03:48:23.929Z,15.60
2022-10-15T03:49:26.788Z,20.44
2022-10-15T03:50:29.222Z,22.90
2022-10-15T03:51:32.309Z,19.70
2022-10-15T03:52:37.105Z,20.40
2022-10-15T03:53:39.071Z,20.00
2022-10-15T03:54:41.580Z,20.40
2022-10-15T03:55:44.299Z,20.40
2022-10-15T03:56:46.312Z,18.10
2022-10-15T03:57:59.162Z,21.20
2022-10-15T03:59:01.373Z,22.30
2022-10-15T04:00:05.599Z,22.44
2022-10-15T04:01:15.502Z,24.80
2022-10-15T04:02:17.808Z,24.50
2022-10-15T04:03:20.638Z,28.22
2022-10-15T04:04:23.268Z,26.60
2022-10-15T04:05:25.098Z,32.33
2022-10-15T04:06:29.975Z,27.30
2022-10-15T04:07:33.826Z,29.70
2022-10-15T04:08:36.330Z,21.10
2022-10-15T04:09:40.035Z,23.30
2022-10-15T04:10:59.554Z,24.00
2022-10-15T04:12:01.575Z,23.70
2022-10-15T04:13:03.307Z,22.56
2022-10-15T04:14:07.259Z,24.30
2022-10-15T04:15:11.246Z,23.30
2022-10-15T04:16:15.635Z,17.10
2022-10-15T04:17:17.995Z,21.70
2022-10-15T04:18:20.824Z,23.90
2022-10-15T04:19:24.775Z,22.20
2022-10-15T04:20:28.596Z,23.90
2022-10-15T04:21:32.239Z,27.20
2022-10-15T04:22:37.316Z,24.80
2022-10-15T04:23:41.154Z,27.40
2022-10-15T04:24:53.638Z,27.20
2022-10-15T04:26:03.279Z,25.80
2022-10-15T04:27:05.390Z,27.20
2022-10-15T04:28:07.575Z,29.10
2022-10-15T04:29:10.646Z,11.80
2022-10-15T04:30:13.580Z,27.20
2022-10-15T04:31:20.424Z,24.40
2022-10-15T04:32:23.734Z,30.60
2022-10-15T04:33:26.535Z,29.90
2022-10-15T04:34:30.179Z,34.10
2022-10-15T04:35:31.968Z,36.78
2022-10-15T04:36:44.724Z,34.10
2022-10-15T04:37:48.622Z,40.50
2022-10-15T04:38:52.342Z,37.90
2022-10-15T04:39:57.246Z,38.50
2022-10-15T04:41:08.458Z,42.30
2022-10-15T04:42:15.022Z,35.40
2022-10-15T04:43:17.819Z,38.60
2022-10-15T04:44:19.686Z,40.40
2022-10-15T04:46:26.415Z,29.91
2022-10-15T04:47:30.221Z,29.40
2022-10-15T04:48:43.452Z,22.60
2022-10-15T04:49:47.621Z,30.10
2022-10-15T04:52:14.012Z,38.70
2022-10-15T04:53:18.861Z,44.20
2022-10-15T04:54:22.722Z,49.80
2022-10-15T04:55:33.134Z,48.10
2022-10-15T04:56:35.667Z,49.73
2022-10-15T04:57:37.528Z,47.33
2022-10-15T04:58:39.740Z,50.67
2022-10-15T04:59:43.041Z,52.60
2022-10-15T05:01:07.188Z,50.60
2022-10-15T05:02:11.025Z,51.70
2022-10-15T05:03:13.191Z,50.70
2022-10-15T05:04:19.945Z,47.60
2022-10-15T05:05:21.795Z,51.11
2022-10-15T05:06:35.803Z,47.50
2022-10-15T05:07:39.598Z,42.30
2022-10-15T05:08:42.392Z,44.11
2022-10-15T05:09:46.598Z,44.00
2022-10-15T05:10:49.174Z,48.40
2022-10-15T05:11:51.770Z,45.30
2022-10-15T05:12:56.809Z,42.60
2022-10-15T05:14:01.959Z,40.50
2022-10-15T05:15:04.853Z,43.10
2022-10-15T05:16:19.893Z,37.80
2022-10-15T05:17:22.437Z,46.50
2022-10-15T05:18:25.392Z,45.30
2022-10-15T05:19:27.331Z,39.00
2022-10-15T05:20:29.133Z,45.22
2022-10-15T05:21:31.909Z,40.78
2022-10-15T05:22:35.811Z,43.60
2022-10-15T05:23:38.786Z,49.80
2022-10-15T05:24:51.693Z,43.20
2022-10-15T05:26:04.374Z,43.80
2022-10-15T05:27:06.226Z,41.40
2022-10-15T05:28:08.165Z,40.00
2022-10-15T05:29:09.942Z,40.33
2022-10-15T05:30:12.053Z,38.50
2022-10-15T05:31:19.994Z,5.60
2022-10-15T05:33:27.186Z,34.20
2022-10-15T05:34:29.180Z,31.27
2022-10-15T05:35:33.079Z,33.00
2022-10-15T05:36:36.138Z,34.90
2022-10-15T05:37:38.419Z,27.56
2022-10-15T05:38:41.669Z,32.90
2022-10-15T05:39:43.836Z,35.80
2022-10-15T05:40:49.497Z,26.80
2022-10-15T05:41:53.927Z,31.70
2022-10-15T05:42:57.692Z,34.50
2022-10-15T05:44:00.378Z,20.20
2022-10-15T05:45:05.074Z,32.70
2022-10-15T05:46:08.027Z,31.91
2022-10-15T05:47:10.339Z,27.82
2022-10-15T05:48:12.088Z,30.44
2022-10-15T05:49:14.139Z,29.00
2022-10-15T05:50:18.113Z,30.20
2022-10-15T05:51:23.548Z,30.70
2022-10-15T05:52:27.517Z,26.20
2022-10-15T05:53:36.730Z,28.90
2022-10-15T05:54:40.518Z,33.10
2022-10-15T05:55:42.751Z,34.50
2022-10-15T05:56:44.653Z,34.10
2022-10-15T05:57:46.854Z,32.33
2022-10-15T05:58:49.856Z,27.40
2022-10-15T05:59:52.433Z,32.90
2022-10-15T06:00:59.359Z,29.67
2022-10-15T06:02:01.316Z,24.50
2022-10-15T06:03:03.909Z,27.00
2022-10-15T06:04:06.130Z,23.10
2022-10-15T06:05:09.870Z,21.70
2022-10-15T06:06:15.335Z,21.20
2022-10-15T06:07:18.567Z,24.00
2022-10-15T06:08:21.309Z,20.40
2022-10-15T06:09:23.376Z,21.20
2022-10-15T06:10:25.311Z,18.00
2022-10-15T06:11:27.583Z,20.11
2022-10-15T06:12:29.571Z,14.50
2022-10-15T06:13:31.324Z,21.33
2022-10-15T06:14:35.596Z,18.56
2022-10-15T06:15:42.090Z,18.70
2022-10-15T06:16:45.513Z,20.00
2022-10-15T06:17:47.449Z,18.80
2022-10-15T06:18:50.375Z,18.44
2022-10-15T06:19:52.250Z,19.45
2022-10-15T06:20:54.251Z,22.00
2022-10-15T06:21:57.501Z,21.44
2022-10-15T06:22:59.928Z,11.50
2022-10-15T06:24:05.144Z,19.30
2022-10-15T06:25:07.870Z,19.30
2022-10-15T06:26:10.920Z,21.50
2022-10-15T06:27:13.218Z,16.90
2022-10-15T06:28:15.324Z,23.60
2022-10-15T06:29:17.322Z,21.20
2022-10-15T06:30:20.179Z,20.20
2022-10-15T06:31:21.993Z,15.00
2022-10-15T06:32:23.855Z,20.33
2022-10-15T06:33:26.330Z,20.00
2022-10-15T06:34:28.229Z,21.50
2022-10-15T06:35:29.957Z,20.89
2022-10-15T06:36:31.817Z,20.56
2022-10-15T06:37:33.983Z,12.78
2022-10-15T06:38:36.607Z,14.80
2022-10-15T06:39:39.385Z,17.50
2022-10-15T06:40:41.225Z,17.82
2022-10-15T06:41:43.060Z,19.78
2022-10-15T06:42:45.855Z,19.22
2022-10-15T06:43:50.543Z,18.64
2022-10-15T06:44:52.380Z,18.70
2022-10-15T06:45:54.682Z,19.89
2022-10-15T06:46:56.596Z,16.80
2022-10-15T06:47:58.892Z,19.56
2022-10-15T06:49:00.730Z,18.00
2022-10-15T06:50:04.025Z,16.44
2022-10-15T06:51:05.942Z,11.30
2022-10-15T06:52:07.605Z,17.44
2022-10-15T06:53:09.430Z,14.00
2022-10-15T06:54:11.330Z,15.33
2022-10-15T06:55:13.336Z,17.67
2022-10-15T06:56:16.370Z,15.00
2022-10-15T06:57:20.330Z,15.80
2022-10-15T06:58:22.049Z,16.00
2022-10-15T06:59:24.240Z,15.33
2022-10-15T07:00:27.504Z,13.60
2022-10-15T07:01:30.117Z,14.80
2022-10-15T07:02:33.716Z,16.80
2022-10-15T07:03:36.213Z,14.10
2022-10-15T07:04:38.652Z,15.60
2022-10-15T07:05:40.350Z,12.00
2022-10-15T07:06:42.106Z,16.33
2022-10-15T07:07:53.459Z,13.67
2022-10-15T07:08:55.768Z,15.20
2022-10-15T07:09:58.637Z,15.90
2022-10-15T07:11:03.669Z,14.92
2022-10-15T07:12:06.598Z,16.90
2022-10-15T07:13:08.488Z,15.10
2022-10-15T07:14:10.420Z,15.00
2022-10-15T07:15:12.199Z,15.89
2022-10-15T07:16:14.376Z,16.40
2022-10-15T07:17:16.816Z,14.67
2022-10-15T07:18:19.300Z,16.70
2022-10-15T07:19:22.261Z,13.00
2022-10-15T07:20:24.562Z,16.00
2022-10-15T07:21:26.580Z,16.80
2022-10-15T07:22:29.339Z,15.89
2022-10-15T07:23:31.814Z,15.30
2022-10-15T07:24:33.712Z,13.70
2022-10-15T07:25:35.464Z,8.89
2022-10-15T07:26:37.406Z,15.11
2022-10-15T07:27:40.454Z,15.33
2022-10-15T07:28:43.266Z,12.20
2022-10-15T07:29:45.311Z,15.36
2022-10-15T07:30:47.206Z,15.90
2022-10-15T07:31:48.968Z,16.67
2022-10-15T07:32:51.237Z,20.00
2022-10-15T07:33:53.987Z,14.89
2022-10-15T07:34:55.812Z,17.90
2022-10-15T07:35:58.286Z,18.22
2022-10-15T07:37:00.276Z,13.90
2022-10-15T07:38:02.693Z,16.00
2022-10-15T07:39:04.756Z,17.70
2022-10-15T07:40:08.720Z,14.90
2022-10-15T07:41:13.235Z,14.90
2022-10-15T07:42:19.092Z,14.40
2022-10-15T07:43:20.975Z,13.30
2022-10-15T07:44:22.698Z,13.78
2022-10-15T07:45:26.109Z,14.00
2022-10-15T07:46:28.025Z,15.10
2022-10-15T07:47:30.043Z,16.00
2022-10-15T07:48:33.191Z,12.00
2022-10-15T07:49:35.062Z,13.30
2022-10-15T07:50:38.162Z,14.44
2022-10-15T07:51:40.880Z,6.70
2022-10-15T07:52:42.967Z,11.78
2022-10-15T07:53:45.472Z,11.40
2022-10-15T07:54:47.367Z,13.30
2022-10-15T07:55:51.404Z,13.00
2022-10-15T07:56:53.187Z,7.80
2022-10-15T07:57:58.631Z,11.22
2022-10-15T07:59:00.448Z,12.40
2022-10-15T08:00:03.243Z,10.78
2022-10-15T08:01:09.408Z,11.40
2022-10-15T08:03:28.991Z,11.30
2022-10-15T08:04:32.211Z,10.20
2022-10-15T08:05:34.442Z,8.30
2022-10-15T08:06:36.390Z,9.20
2022-10-15T08:07:38.369Z,9.10
2022-10-15T08:08:42.258Z,9.60
2022-10-15T08:09:44.120Z,9.00
2022-10-15T08:10:46.704Z,9.22
2022-10-15T08:11:49.215Z,11.10
2022-10-15T08:12:52.686Z,9.00
2022-10-15T08:13:54.772Z,10.22
2022-10-15T08:14:56.499Z,4.80
2022-10-15T08:16:00.227Z,6.11
2022-10-15T08:17:03.875Z,6.60
2022-10-15T08:18:07.385Z,7.30
2022-10-15T08:19:10.173Z,4.40
2022-10-15T08:20:12.734Z,4.50
2022-10-15T08:21:14.864Z,4.00
2022-10-15T08:22:17.083Z,5.30
2022-10-15T08:23:18.885Z,7.00
2022-10-15T08:24:20.705Z,4.33
2022-10-15T08:25:22.588Z,3.78
2022-10-15T08:26:24.447Z,3.30
2022-10-15T08:27:26.942Z,3.89
2022-10-15T08:28:32.119Z,4.30
2022-10-15T08:29:34.345Z,8.00
2022-10-15T08:30:37.639Z,6.00
2022-10-15T08:31:41.923Z,3.70
2022-10-15T08:32:44.210Z,5.20
2022-10-15T08:33:46.386Z,6.00
2022-10-15T08:34:49.202Z,5.00
2022-10-15T08:35:52.192Z,4.18
2022-10-15T08:36:54.197Z,2.50
2022-10-15T08:37:56.882Z,6.50
2022-10-15T08:38:59.066Z,2.50
2022-10-15T08:40:02.276Z,3.80
2022-10-15T08:41:07.771Z,3.90
2022-10-15T08:42:34.549Z,4.00
2022-10-15T08:43:39.953Z,5.20
2022-10-15T08:44:53.024Z,6.00
2022-10-15T08:45:58.756Z,6.40
2022-10-15T08:47:23.813Z,2.50
2022-10-15T08:48:50.732Z,6.00
2022-10-15T08:49:56.321Z,4.90
2022-10-15T08:51:16.930Z,4.50
2022-10-15T08:52:31.650Z,3.10
2022-10-15T08:53:39.860Z,4.80
2022-10-15T08:54:42.560Z,2.90
2022-10-15T08:55:48.150Z,3.73
2022-10-15T08:56:56.540Z,4.20
2022-10-15T08:58:02.199Z,3.40
2022-10-15T08:59:19.156Z,5.80
2022-10-15T09:00:31.406Z,4.60
2022-10-15T09:01:46.099Z,5.70
2022-10-15T09:03:06.794Z,3.00
2022-10-15T09:04:41.805Z,3.60
2022-10-15T09:06:06.247Z,5.10
2022-10-15T09:07:14.449Z,4.70
2022-10-15T09:08:38.024Z,3.50
2022-10-15T09:09:43.520Z,3.20
2022-10-15T09:10:49.121Z,4.50
2022-10-15T09:12:04.055Z,0.50
2022-10-15T09:13:16.663Z,3.30
2022-10-15T09:14:22.415Z,3.00
2022-10-15T09:15:27.861Z,3.80
2022-10-15T09:16:36.890Z,0.20
2022-10-15T09:17:41.481Z,4.00
2022-10-15T09:18:49.292Z,2.80
2022-10-15T09:19:56.016Z,2.70
2022-10-15T09:20:59.768Z,3.10
2022-10-15T09:22:01.724Z,2.40
2022-10-15T09:23:05.396Z,2.60
2022-10-15T09:24:11.981Z,2.90
2022-10-15T09:26:41.034Z,3.00
2022-10-15T09:27:45.761Z,2.40
2022-10-15T09:28:56.908Z,0.20
2022-10-15T09:30:29.186Z,3.40
2022-10-15T09:31:35.743Z,3.60
2022-10-15T09:32:50.626Z,3.20
2022-10-15T09:33:55.791Z,3.50
2022-10-15T09:35:06.116Z,3.20
2022-10-15T09:36:17.797Z,2.40
2022-10-15T09:37:35.575Z,0.50
2022-10-15T09:39:07.351Z,2.80
2022-10-15T09:40:28.448Z,2.50
2022-10-15T09:41:52.623Z,2.00
2022-10-15T09:42:57.893Z,3.60
2022-10-15T09:44:02.916Z,2.40
2022-10-15T09:45:13.959Z,2.70
2022-10-15T09:46:17.459Z,3.10
2022-10-15T09:47:25.986Z,3.20
2022-10-15T09:48:36.214Z,2.80
2022-10-15T09:49:38.069Z,3.30
2022-10-15T09:50:58.774Z,2.33
2022-10-15T09:52:05.022Z,2.90
2022-10-15T09:53:28.851Z,3.70
2022-10-15T09:54:47.591Z,1.60
2022-10-15T09:55:54.225Z,2.60
2022-10-15T09:56:58.720Z,3.40
2022-10-15T09:58:08.079Z,3.50
2022-10-15T09:59:17.433Z,2.50
2022-10-15T10:00:20.011Z,3.10
2022-10-15T10:01:26.977Z,2.20
2022-10-15T10:02:29.990Z,3.60
2022-10-15T10:03:34.714Z,4.00
2022-10-15T10:04:36.503Z,2.80
2022-10-15T10:05:38.550Z,3.67
2022-10-15T10:06:52.853Z,2.90
2022-10-15T10:08:13.589Z,3.00
2022-10-15T10:09:22.744Z,3.00
2022-10-15T10:10:30.971Z,3.00
2022-10-15T10:11:36.558Z,3.50
2022-10-15T10:12:38.738Z,2.80
2022-10-15T10:14:00.692Z,3.30
2022-10-15T10:15:06.202Z,2.40
2022-10-15T10:16:10.646Z,3.00
2022-10-15T10:17:24.687Z,3.20
2022-10-15T10:18:26.798Z,3.70
2022-10-15T10:19:28.601Z,3.00
2022-10-15T10:20:34.016Z,0.80
2022-10-15T10:21:38.199Z,1.60
2022-10-15T10:22:51.589Z,4.30
2022-10-15T10:23:55.926Z,2.80
2022-10-15T10:24:59.024Z,4.10
2022-10-15T10:26:04.517Z,4.18
2022-10-15T10:27:19.061Z,4.00
2022-10-15T10:28:45.833Z,3.10
2022-10-15T10:29:59.991Z,3.20
2022-10-15T10:31:08.997Z,3.00
2022-10-15T10:32:14.593Z,2.40
2022-10-15T10:33:20.060Z,2.90
2022-10-15T10:34:28.284Z,3.40
2022-10-15T10:35:45.155Z,3.80
2022-10-15T10:36:52.956Z,2.30
2022-10-15T10:37:55.090Z,3.50
2022-10-15T10:39:15.643Z,3.70
2022-10-15T10:40:34.908Z,4.70
2022-10-15T10:41:54.352Z,3.50
2022-10-15T10:43:18.393Z,3.70
2022-10-15T10:44:25.172Z,2.80
2022-10-15T10:45:27.240Z,3.60
2022-10-15T10:46:29.237Z,3.20
2022-10-15T10:47:34.728Z,4.56
2022-10-15T10:48:46.365Z,2.70
2022-10-15T10:49:55.316Z,2.90
2022-10-15T10:51:09.249Z,3.00
2022-10-15T10:52:33.513Z,2.40
2022-10-15T10:53:40.164Z,4.80
2022-10-15T10:55:45.918Z,5.00
2022-10-15T10:56:49.476Z,3.00
2022-10-15T10:57:56.871Z,4.00
2022-10-15T10:59:05.067Z,4.00
2022-10-15T11:00:10.752Z,4.80
2022-10-15T11:01:16.680Z,3.40
2022-10-15T11:02:19.504Z,3.80
2022-10-15T11:03:37.649Z,3.60
2022-10-15T11:04:40.492Z,2.70
2022-10-15T11:05:43.722Z,3.70
2022-10-15T11:07:05.265Z,3.30
2022-10-15T11:08:19.911Z,3.30
2022-10-15T11:09:37.558Z,2.70
2022-10-15T11:12:31.506Z,3.80
2022-10-15T11:13:40.652Z,3.00
2022-10-15T11:14:51.363Z,3.20
2022-10-15T11:16:01.739Z,2.40
2022-10-15T11:17:10.264Z,3.00
2022-10-15T11:18:31.351Z,2.90
2022-10-15T11:20:05.962Z,2.90
2022-10-15T11:21:21.142Z,3.50
2022-10-15T11:24:42.649Z,2.90
2022-10-15T11:25:49.478Z,2.30
2022-10-15T11:27:10.966Z,3.10
2022-10-15T11:28:47.931Z,2.20
2022-10-15T11:30:11.713Z,2.00
2022-10-15T11:31:19.658Z,1.70
2022-10-15T11:34:04.075Z,3.10
2022-10-15T11:35:34.468Z,3.60
2022-10-15T11:36:37.932Z,3.50
2022-10-15T11:38:03.248Z,2.00
2022-10-15T11:39:35.930Z,2.90
2022-10-15T11:40:57.074Z,0.20
2022-10-15T11:42:08.625Z,2.50
2022-10-15T11:43:25.988Z,2.50
2022-10-15T11:44:48.483Z,2.40
2022-10-15T11:46:12.571Z,3.50
2022-10-15T11:47:39.006Z,3.20
2022-10-15T11:48:50.743Z,2.60
2022-10-15T11:50:02.790Z,2.50
2022-10-15T11:51:17.563Z,3.60
2022-10-15T11:52:32.034Z,4.30
2022-10-15T11:54:03.625Z,4.00
2022-10-15T11:55:15.708Z,3.40
2022-10-15T11:56:22.399Z,3.40
2022-10-15T11:57:27.625Z,2.60
2022-10-15T11:58:42.060Z,3.00
2022-10-15T12:00:00.249Z,3.40
2022-10-15T12:01:09.517Z,3.40
2022-10-15T12:02:15.085Z,3.10
2022-10-15T12:03:20.817Z,4.20
2022-10-15T12:04:42.446Z,3.60
2022-10-15T12:05:49.085Z,3.80
2022-10-15T12:06:54.572Z,3.50
2022-10-15T12:07:57.086Z,4.50
2022-10-15T12:09:04.883Z,4.00
2022-10-15T12:10:27.778Z,4.20
2022-10-15T12:13:16.309Z,6.20
2022-10-15T12:14:25.850Z,5.40
2022-10-15T12:15:48.464Z,4.40
2022-10-15T12:17:00.283Z,9.90
2022-10-15T12:18:24.639Z,14.10
2022-10-15T12:19:30.791Z,40.50
2022-10-15T12:20:33.591Z,46.00
2022-10-15T12:21:43.602Z,50.00
2022-10-15T12:22:50.046Z,55.70
2022-10-15T12:23:51.910Z,54.50
2022-10-15T12:24:54.943Z,82.44
2022-10-15T12:25:57.033Z,62.55
2022-10-15T12:27:20.939Z,49.00
2022-10-15T12:28:26.977Z,13.20
2022-10-15T12:29:30.040Z,79.40
2022-10-15T12:30:34.988Z,43.90
2022-10-15T12:31:52.923Z,43.50
2022-10-15T12:32:55.552Z,48.90
2022-10-15T12:33:57.822Z,5.00
2022-10-15T12:35:02.848Z,7.30
2022-10-15T12:36:08.786Z,8.00
2022-10-15T12:37:19.284Z,11.80
2022-10-15T12:38:31.063Z,12.70
2022-10-15T12:40:40.987Z,3.70
2022-10-15T12:41:47.806Z,2.70
2022-10-15T12:42:53.680Z,3.50
2022-10-15T12:44:22.295Z,4.00
2022-10-15T12:45:40.001Z,3.70
2022-10-15T12:46:41.606Z,5.60
2022-10-15T12:47:55.470Z,6.80
2022-10-15T12:48:57.926Z,6.20
2022-10-15T12:50:05.702Z,4.50
2022-10-15T12:51:24.397Z,4.20
2022-10-15T12:52:52.905Z,5.00
2022-10-15T12:53:55.460Z,3.90
2022-10-15T12:55:18.343Z,2.80
2022-10-15T12:56:23.864Z,3.90
2022-10-15T12:57:35.481Z,2.20
2022-10-15T12:58:52.557Z,3.40
2022-10-15T12:59:56.381Z,3.00
2022-10-15T13:01:04.873Z,2.30
2022-10-15T13:02:11.107Z,3.30
2022-10-15T13:03:21.776Z,2.70
2022-10-15T13:04:27.364Z,4.30
2022-10-15T13:05:33.517Z,3.50
2022-10-15T13:06:38.298Z,5.80
2022-10-15T13:07:45.013Z,3.50
2022-10-15T13:09:13.950Z,5.00
2022-10-15T13:10:20.966Z,4.60
2022-10-15T13:11:32.913Z,6.50
2022-10-15T13:12:37.329Z,14.80
2022-10-15T13:13:43.226Z,86.10
2022-10-15T13:14:48.903Z,84.10
2022-10-15T13:16:08.964Z,103.00
2022-10-15T13:17:17.240Z,15.70
2022-10-15T13:18:21.877Z,53.20
2022-10-15T13:19:30.479Z,88.30
2022-10-15T13:20:36.753Z,88.10
2022-10-15T13:21:53.176Z,98.90
2022-10-15T13:23:25.743Z,36.80
2022-10-15T13:24:21.008Z,45.50
2022-10-15T13:25:22.943Z,36.50
2022-10-15T13:26:26.097Z,34.22
2022-10-15T13:27:33.635Z,46.60
2022-10-15T13:28:38.569Z,40.00
2022-10-15T13:29:44.264Z,44.60
2022-10-15T13:30:50.121Z,30.90
2022-10-15T13:31:56.279Z,41.60
2022-10-15T13:32:59.849Z,40.10
2022-10-15T13:34:17.730Z,31.90
2022-10-15T13:35:25.072Z,32.30
2022-10-15T13:36:32.811Z,32.60
2022-10-15T13:37:36.813Z,35.10
2022-10-15T13:38:41.909Z,29.70
2022-10-15T13:39:44.932Z,40.70
2022-10-15T13:40:50.019Z,20.20
2022-10-15T13:41:54.957Z,43.90
2022-10-15T13:43:03.505Z,31.90
2022-10-15T13:44:05.670Z,31.20
2022-10-15T13:45:17.548Z,20.50
2022-10-15T13:46:22.255Z,45.50
2022-10-15T13:47:33.716Z,15.50
2022-10-15T13:48:41.573Z,44.40
2022-10-15T13:49:43.734Z,21.40
2022-10-15T13:50:55.603Z,28.30
2022-10-15T13:51:58.214Z,29.90
2022-10-15T13:53:20.822Z,16.10
2022-10-15T13:54:29.567Z,30.50
2022-10-15T13:55:35.023Z,20.30
2022-10-15T13:56:41.216Z,25.90
2022-10-15T13:57:48.161Z,19.90
2022-10-15T13:58:52.286Z,19.50
2022-10-15T13:59:54.840Z,32.10
2022-10-15T14:01:05.793Z,17.00
2022-10-15T14:02:11.870Z,11.20
2022-10-15T14:03:17.379Z,20.60
2022-10-15T14:04:23.124Z,22.90
2022-10-15T14:05:26.498Z,12.30
2022-10-15T14:06:31.826Z,14.90
2022-10-15T14:07:35.938Z,18.90
2022-10-15T14:08:37.692Z,11.50
2022-10-15T14:09:40.356Z,9.44
2022-10-15T14:10:42.629Z,17.55
2022-10-15T14:11:44.811Z,6.70
2022-10-15T14:12:46.814Z,8.60
2022-10-15T14:15:24.877Z,7.40
2022-10-15T14:16:42.285Z,10.40
2022-10-15T14:17:48.940Z,7.00
2022-10-15T14:18:54.041Z,5.50
2022-10-15T14:20:25.317Z,7.50
2022-10-15T14:21:14.537Z,8.20
2022-10-15T14:22:19.903Z,12.20
2022-10-15T14:23:24.875Z,12.50
2022-10-15T14:24:39.140Z,6.80
2022-10-15T14:25:41.762Z,7.50
2022-10-15T14:26:45.373Z,13.60
2022-10-15T14:27:47.991Z,7.00
2022-10-15T14:28:52.216Z,11.50
2022-10-15T14:30:00.487Z,8.80
2022-10-15T14:31:03.027Z,6.80
2022-10-15T14:32:20.082Z,6.55
2022-10-15T14:33:41.208Z,6.60
2022-10-15T14:34:43.638Z,8.30
2022-10-15T14:35:45.758Z,5.60
2022-10-15T14:36:49.210Z,5.90
2022-10-15T14:38:11.988Z,7.60
2022-10-15T14:39:32.196Z,6.40
2022-10-15T14:40:35.248Z,6.40
2022-10-15T14:41:37.258Z,7.10
2022-10-15T14:42:45.152Z,7.44
2022-10-15T14:44:05.886Z,7.30
2022-10-15T14:45:26.355Z,6.40
2022-10-15T14:46:45.260Z,7.40
2022-10-15T14:47:51.477Z,5.80
2022-10-15T14:48:54.107Z,6.00
2022-10-15T14:49:58.757Z,6.90
2022-10-15T14:51:05.295Z,7.00
2022-10-15T14:52:13.629Z,5.60
2022-10-15T14:53:22.730Z,5.50
2022-10-15T14:54:28.205Z,6.90